Terminal Aerodrome Forecast
Issued by NWS

Current Version | Previous Version | Text Only | Print | Product List | Glossary On
Versions: 1 2 3 4 5 6 7 8 9 10 11 12 13 14 15 16 17 18 19 20 21 22 23 24 25 26 27 28 29 30 31 32
000
FTUS45 KBOU 251131
TAFBJC
TAF
KBJC 251131Z 2512/2612 VRB04KT P6SM BKN150 BKN200
     FM251500 06009KT P6SM FEW100 SCT220
     FM251700 10008KT P6SM FEW080 SCT150
     FM251900 15011KT P6SM VCSH SCT080 BKN140
      TEMPO 2520/2524 VRB20G35KT -TSRA BKN080CB
     FM260100 29011KT P6SM FEW080 BKN110
     FM260500 24010KT P6SM FEW110 SCT200=

USA.gov is the U.S. government's official web portal to all federal, state and local government web resources and services.